sensor_id;sensor_type;location;lat;lon;timestamp;P1;durP1;ratioP1;P2;durP2;ratioP2
38805;SDS011;25635;51.146;17.162;2023-07-31T00:00:38;4.10;;;1.30;;
38805;SDS011;25635;51.146;17.162;2023-07-31T00:05:50;4.40;;;1.40;;
38805;SDS011;25635;51.146;17.162;2023-07-31T00:08:16;5.60;;;1.60;;
38805;SDS011;25635;51.146;17.162;2023-07-31T00:10:42;4.60;;;1.50;;
38805;SDS011;25635;51.146;17.162;2023-07-31T00:13:08;6.40;;;1.50;;
38805;SDS011;25635;51.146;17.162;2023-07-31T00:15:34;4.70;;;1.50;;
38805;SDS011;25635;51.146;17.162;2023-07-31T00:18:00;4.20;;;1.30;;
38805;SDS011;25635;51.146;17.162;2023-07-31T00:20:27;4.50;;;1.60;;
38805;SDS011;25635;51.146;17.162;2023-07-31T00:22:53;5.40;;;1.40;;
38805;SDS011;25635;51.146;17.162;2023-07-31T00:25:19;5.90;;;1.60;;
38805;SDS011;25635;51.146;17.162;2023-07-31T00:27:45;4.50;;;1.40;;
38805;SDS011;25635;51.146;17.162;2023-07-31T00:30:11;6.00;;;1.70;;
38805;SDS011;25635;51.146;17.162;2023-07-31T00:32:37;5.00;;;1.30;;
38805;SDS011;25635;51.146;17.162;2023-07-31T00:35:04;5.80;;;1.50;;
38805;SDS011;25635;51.146;17.162;2023-07-31T00:37:30;5.50;;;1.40;;
38805;SDS011;25635;51.146;17.162;2023-07-31T00:39:56;4.00;;;1.60;;
38805;SDS011;25635;51.146;17.162;2023-07-31T00:42:22;5.70;;;1.70;;
38805;SDS011;25635;51.146;17.162;2023-07-31T00:44:49;3.40;;;1.20;;
38805;SDS011;25635;51.146;17.162;2023-07-31T00:47:15;3.90;;;1.60;;
38805;SDS011;25635;51.146;17.162;2023-07-31T00:49:41;4.20;;;1.40;;
38805;SDS011;25635;51.146;17.162;2023-07-31T00:52:07;3.90;;;1.50;;
38805;SDS011;25635;51.146;17.162;2023-07-31T00:54:34;5.60;;;1.60;;
38805;SDS011;25635;51.146;17.162;2023-07-31T00:57:01;5.30;;;1.80;;
38805;SDS011;25635;51.146;17.162;2023-07-31T00:59:27;6.60;;;1.80;;
38805;SDS011;25635;51.146;17.162;2023-07-31T01:01:53;4.30;;;1.50;;
38805;SDS011;25635;51.146;17.162;2023-07-31T01:04:20;5.50;;;1.80;;
38805;SDS011;25635;51.146;17.162;2023-07-31T01:09:45;4.20;;;1.50;;
38805;SDS011;25635;51.146;17.162;2023-07-31T01:12:40;4.40;;;1.40;;
38805;SDS011;25635;51.146;17.162;2023-07-31T01:15:08;4.50;;;1.50;;
38805;SDS011;25635;51.146;17.162;2023-07-31T01:17:36;6.50;;;1.60;;
38805;SDS011;25635;51.146;17.162;2023-07-31T01:20:09;4.80;;;1.70;;
38805;SDS011;25635;51.146;17.162;2023-07-31T01:27:44;5.50;;;1.50;;
38805;SDS011;25635;51.146;17.162;2023-07-31T01:30:23;3.80;;;1.40;;
38805;SDS011;25635;51.146;17.162;2023-07-31T01:32:53;4.80;;;1.40;;
38805;SDS011;25635;51.146;17.162;2023-07-31T01:35:20;3.70;;;1.60;;
38805;SDS011;25635;51.146;17.162;2023-07-31T01:37:46;5.10;;;1.40;;
38805;SDS011;25635;51.146;17.162;2023-07-31T01:40:13;6.40;;;1.50;;
38805;SDS011;25635;51.146;17.162;2023-07-31T01:42:39;4.70;;;1.50;;
38805;SDS011;25635;51.146;17.162;2023-07-31T01:45:05;4.00;;;1.30;;
38805;SDS011;25635;51.146;17.162;2023-07-31T01:47:31;4.90;;;1.60;;
38805;SDS011;25635;51.146;17.162;2023-07-31T01:49:57;5.00;;;1.60;;
38805;SDS011;25635;51.146;17.162;2023-07-31T01:52:23;5.10;;;2.10;;
38805;SDS011;25635;51.146;17.162;2023-07-31T01:54:49;10.20;;;1.80;;
38805;SDS011;25635;51.146;17.162;2023-07-31T01:57:15;5.70;;;1.50;;
38805;SDS011;25635;51.146;17.162;2023-07-31T01:59:42;6.50;;;1.70;;
38805;SDS011;25635;51.146;17.162;2023-07-31T02:02:08;6.10;;;1.70;;
38805;SDS011;25635;51.146;17.162;2023-07-31T02:04:34;4.70;;;1.60;;
38805;SDS011;25635;51.146;17.162;2023-07-31T02:07:00;7.00;;;1.80;;
38805;SDS011;25635;51.146;17.162;2023-07-31T02:09:26;5.20;;;1.60;;
38805;SDS011;25635;51.146;17.162;2023-07-31T02:11:52;6.50;;;1.90;;
38805;SDS011;25635;51.146;17.162;2023-07-31T02:14:18;7.00;;;1.60;;
38805;SDS011;25635;51.146;17.162;2023-07-31T02:16:44;5.20;;;1.50;;
38805;SDS011;25635;51.146;17.162;2023-07-31T02:19:10;5.80;;;1.80;;
38805;SDS011;25635;51.146;17.162;2023-07-31T02:21:36;7.70;;;2.60;;
38805;SDS011;25635;51.146;17.162;2023-07-31T02:24:02;6.10;;;1.50;;
38805;SDS011;25635;51.146;17.162;2023-07-31T02:26:28;6.20;;;1.70;;
38805;SDS011;25635;51.146;17.162;2023-07-31T02:28:54;5.10;;;1.50;;
38805;SDS011;25635;51.146;17.162;2023-07-31T02:31:22;4.20;;;1.30;;
38805;SDS011;25635;51.146;17.162;2023-07-31T02:33:48;6.20;;;1.50;;
38805;SDS011;25635;51.146;17.162;2023-07-31T02:36:14;5.10;;;1.50;;
38805;SDS011;25635;51.146;17.162;2023-07-31T02:38:40;6.50;;;1.60;;
38805;SDS011;25635;51.146;17.162;2023-07-31T02:41:06;4.80;;;1.20;;
38805;SDS011;25635;51.146;17.162;2023-07-31T02:43:32;6.10;;;1.50;;
38805;SDS011;25635;51.146;17.162;2023-07-31T02:45:59;5.90;;;1.50;;
38805;SDS011;25635;51.146;17.162;2023-07-31T02:48:25;5.10;;;1.70;;
38805;SDS011;25635;51.146;17.162;2023-07-31T02:50:51;7.90;;;1.60;;
38805;SDS011;25635;51.146;17.162;2023-07-31T02:53:17;8.70;;;2.20;;
38805;SDS011;25635;51.146;17.162;2023-07-31T02:55:43;4.30;;;1.60;;
38805;SDS011;25635;51.146;17.162;2023-07-31T02:58:09;7.80;;;1.50;;
38805;SDS011;25635;51.146;17.162;2023-07-31T03:00:35;3.60;;;1.30;;
38805;SDS011;25635;51.146;17.162;2023-07-31T03:03:01;5.00;;;1.30;;
38805;SDS011;25635;51.146;17.162;2023-07-31T03:05:27;6.60;;;1.40;;
38805;SDS011;25635;51.146;17.162;2023-07-31T03:07:54;6.40;;;1.50;;
38805;SDS011;25635;51.146;17.162;2023-07-31T03:10:20;4.80;;;1.50;;
38805;SDS011;25635;51.146;17.162;2023-07-31T03:12:46;5.50;;;1.50;;
38805;SDS011;25635;51.146;17.162;2023-07-31T03:15:14;8.50;;;1.80;;
38805;SDS011;25635;51.146;17.162;2023-07-31T03:17:40;5.20;;;1.50;;
38805;SDS011;25635;51.146;17.162;2023-07-31T03:20:06;5.70;;;1.60;;
38805;SDS011;25635;51.146;17.162;2023-07-31T03:22:32;5.60;;;1.40;;
38805;SDS011;25635;51.146;17.162;2023-07-31T03:24:58;8.40;;;1.60;;
38805;SDS011;25635;51.146;17.162;2023-07-31T03:27:24;6.50;;;1.80;;
38805;SDS011;25635;51.146;17.162;2023-07-31T03:29:50;6.30;;;1.50;;
38805;SDS011;25635;51.146;17.162;2023-07-31T03:32:17;7.40;;;1.80;;
38805;SDS011;25635;51.146;17.162;2023-07-31T03:34:44;5.90;;;1.60;;
38805;SDS011;25635;51.146;17.162;2023-07-31T03:37:10;8.60;;;1.80;;
38805;SDS011;25635;51.146;17.162;2023-07-31T03:39:36;8.00;;;2.10;;
38805;SDS011;25635;51.146;17.162;2023-07-31T03:42:01;5.40;;;1.60;;
38805;SDS011;25635;51.146;17.162;2023-07-31T03:44:28;5.30;;;1.50;;
38805;SDS011;25635;51.146;17.162;2023-07-31T03:46:54;6.40;;;1.80;;
38805;SDS011;25635;51.146;17.162;2023-07-31T03:49:20;7.30;;;1.80;;
38805;SDS011;25635;51.146;17.162;2023-07-31T03:51:46;6.60;;;1.90;;
38805;SDS011;25635;51.146;17.162;2023-07-31T03:54:12;6.70;;;1.70;;
38805;SDS011;25635;51.146;17.162;2023-07-31T03:56:39;5.80;;;1.80;;
38805;SDS011;25635;51.146;17.162;2023-07-31T03:59:05;6.40;;;1.50;;
38805;SDS011;25635;51.146;17.162;2023-07-31T04:01:31;4.90;;;1.60;;
38805;SDS011;25635;51.146;17.162;2023-07-31T04:03:56;4.90;;;1.60;;
38805;SDS011;25635;51.146;17.162;2023-07-31T04:06:23;5.40;;;1.90;;
38805;SDS011;25635;51.146;17.162;2023-07-31T04:08:49;5.60;;;1.50;;
38805;SDS011;25635;51.146;17.162;2023-07-31T04:11:15;5.00;;;1.50;;
38805;SDS011;25635;51.146;17.162;2023-07-31T04:13:41;7.30;;;1.80;;
38805;SDS011;25635;51.146;17.162;2023-07-31T04:16:07;6.70;;;2.10;;
38805;SDS011;25635;51.146;17.162;2023-07-31T04:18:33;6.00;;;1.60;;
38805;SDS011;25635;51.146;17.162;2023-07-31T04:20:59;6.10;;;1.70;;
38805;SDS011;25635;51.146;17.162;2023-07-31T04:23:26;7.90;;;1.70;;
38805;SDS011;25635;51.146;17.162;2023-07-31T04:25:52;4.50;;;1.50;;
38805;SDS011;25635;51.146;17.162;2023-07-31T04:28:18;4.70;;;1.50;;
38805;SDS011;25635;51.146;17.162;2023-07-31T04:30:44;5.10;;;1.80;;
38805;SDS011;25635;51.146;17.162;2023-07-31T04:33:10;7.10;;;1.90;;
38805;SDS011;25635;51.146;17.162;2023-07-31T04:35:36;5.50;;;1.70;;
38805;SDS011;25635;51.146;17.162;2023-07-31T04:38:02;8.60;;;2.00;;
38805;SDS011;25635;51.146;17.162;2023-07-31T04:40:28;7.30;;;1.70;;
38805;SDS011;25635;51.146;17.162;2023-07-31T04:42:54;3.90;;;1.20;;
38805;SDS011;25635;51.146;17.162;2023-07-31T04:45:20;6.40;;;1.60;;
38805;SDS011;25635;51.146;17.162;2023-07-31T04:47:46;4.00;;;1.20;;
38805;SDS011;25635;51.146;17.162;2023-07-31T04:50:12;6.50;;;1.50;;
38805;SDS011;25635;51.146;17.162;2023-07-31T04:52:38;8.40;;;1.60;;
38805;SDS011;25635;51.146;17.162;2023-07-31T04:55:04;7.80;;;1.80;;
38805;SDS011;25635;51.146;17.162;2023-07-31T04:57:30;5.60;;;1.40;;
38805;SDS011;25635;51.146;17.162;2023-07-31T04:59:56;6.00;;;1.80;;
38805;SDS011;25635;51.146;17.162;2023-07-31T05:02:22;6.80;;;1.50;;
38805;SDS011;25635;51.146;17.162;2023-07-31T05:04:48;9.80;;;1.90;;
38805;SDS011;25635;51.146;17.162;2023-07-31T05:07:14;6.40;;;1.70;;
38805;SDS011;25635;51.146;17.162;2023-07-31T05:09:41;5.00;;;1.40;;
38805;SDS011;25635;51.146;17.162;2023-07-31T05:12:07;4.50;;;1.40;;
38805;SDS011;25635;51.146;17.162;2023-07-31T05:14:33;4.50;;;1.40;;
38805;SDS011;25635;51.146;17.162;2023-07-31T05:16:59;5.70;;;1.40;;
38805;SDS011;25635;51.146;17.162;2023-07-31T05:19:25;6.00;;;1.40;;
38805;SDS011;25635;51.146;17.162;2023-07-31T05:21:51;5.00;;;1.40;;
38805;SDS011;25635;51.146;17.162;2023-07-31T05:24:17;5.80;;;1.60;;
38805;SDS011;25635;51.146;17.162;2023-07-31T05:26:43;5.40;;;1.30;;
38805;SDS011;25635;51.146;17.162;2023-07-31T05:29:09;7.70;;;1.90;;
38805;SDS011;25635;51.146;17.162;2023-07-31T05:31:35;5.90;;;1.60;;
38805;SDS011;25635;51.146;17.162;2023-07-31T05:34:01;5.20;;;1.60;;
38805;SDS011;25635;51.146;17.162;2023-07-31T05:36:27;7.20;;;1.70;;
38805;SDS011;25635;51.146;17.162;2023-07-31T05:38:53;4.50;;;1.60;;
38805;SDS011;25635;51.146;17.162;2023-07-31T05:41:19;4.90;;;1.70;;
38805;SDS011;25635;51.146;17.162;2023-07-31T05:43:45;6.60;;;1.70;;
38805;SDS011;25635;51.146;17.162;2023-07-31T05:46:11;7.10;;;1.90;;
38805;SDS011;25635;51.146;17.162;2023-07-31T05:48:37;5.30;;;1.40;;
38805;SDS011;25635;51.146;17.162;2023-07-31T05:51:03;4.80;;;1.50;;
38805;SDS011;25635;51.146;17.162;2023-07-31T05:53:29;5.40;;;1.50;;
38805;SDS011;25635;51.146;17.162;2023-07-31T05:55:55;5.30;;;1.70;;
38805;SDS011;25635;51.146;17.162;2023-07-31T05:58:21;7.90;;;1.60;;
38805;SDS011;25635;51.146;17.162;2023-07-31T06:00:47;6.50;;;1.80;;
38805;SDS011;25635;51.146;17.162;2023-07-31T06:03:14;7.50;;;1.70;;
38805;SDS011;25635;51.146;17.162;2023-07-31T06:05:40;6.10;;;2.00;;
38805;SDS011;25635;51.146;17.162;2023-07-31T06:08:06;6.00;;;1.70;;
38805;SDS011;25635;51.146;17.162;2023-07-31T06:10:32;5.70;;;1.40;;
38805;SDS011;25635;51.146;17.162;2023-07-31T06:12:58;6.10;;;1.50;;
38805;SDS011;25635;51.146;17.162;2023-07-31T06:15:24;5.70;;;1.70;;
38805;SDS011;25635;51.146;17.162;2023-07-31T06:17:50;5.10;;;1.60;;
38805;SDS011;25635;51.146;17.162;2023-07-31T06:20:17;5.80;;;1.80;;
38805;SDS011;25635;51.146;17.162;2023-07-31T06:22:42;8.00;;;1.70;;
38805;SDS011;25635;51.146;17.162;2023-07-31T06:25:09;6.80;;;1.40;;
38805;SDS011;25635;51.146;17.162;2023-07-31T06:27:35;6.80;;;1.60;;
38805;SDS011;25635;51.146;17.162;2023-07-31T06:30:01;7.20;;;1.20;;
38805;SDS011;25635;51.146;17.162;2023-07-31T06:32:27;6.10;;;1.50;;
38805;SDS011;25635;51.146;17.162;2023-07-31T06:34:53;5.10;;;1.40;;
38805;SDS011;25635;51.146;17.162;2023-07-31T06:37:19;5.30;;;1.30;;
38805;SDS011;25635;51.146;17.162;2023-07-31T06:39:45;5.40;;;1.30;;
38805;SDS011;25635;51.146;17.162;2023-07-31T06:42:11;6.10;;;1.70;;
38805;SDS011;25635;51.146;17.162;2023-07-31T06:44:37;4.70;;;1.70;;
38805;SDS011;25635;51.146;17.162;2023-07-31T06:47:04;7.10;;;1.70;;
38805;SDS011;25635;51.146;17.162;2023-07-31T06:49:30;6.10;;;1.80;;
38805;SDS011;25635;51.146;17.162;2023-07-31T06:51:56;5.50;;;1.40;;
38805;SDS011;25635;51.146;17.162;2023-07-31T06:54:22;8.50;;;1.80;;
38805;SDS011;25635;51.146;17.162;2023-07-31T06:56:48;5.90;;;1.20;;
38805;SDS011;25635;51.146;17.162;2023-07-31T06:59:14;5.30;;;1.40;;
38805;SDS011;25635;51.146;17.162;2023-07-31T07:01:40;5.10;;;1.30;;
38805;SDS011;25635;51.146;17.162;2023-07-31T07:04:06;5.30;;;1.20;;
38805;SDS011;25635;51.146;17.162;2023-07-31T07:06:32;5.10;;;1.20;;
38805;SDS011;25635;51.146;17.162;2023-07-31T07:08:58;8.80;;;1.60;;
38805;SDS011;25635;51.146;17.162;2023-07-31T07:11:27;5.20;;;1.50;;
38805;SDS011;25635;51.146;17.162;2023-07-31T07:13:53;7.80;;;1.50;;
38805;SDS011;25635;51.146;17.162;2023-07-31T07:16:19;7.40;;;1.70;;
38805;SDS011;25635;51.146;17.162;2023-07-31T07:18:48;4.30;;;1.00;;
38805;SDS011;25635;51.146;17.162;2023-07-31T07:21:13;3.90;;;1.20;;
38805;SDS011;25635;51.146;17.162;2023-07-31T07:23:42;3.10;;;0.90;;
38805;SDS011;25635;51.146;17.162;2023-07-31T07:26:08;5.70;;;1.10;;
38805;SDS011;25635;51.146;17.162;2023-07-31T07:28:34;5.50;;;1.20;;
38805;SDS011;25635;51.146;17.162;2023-07-31T07:31:00;4.20;;;1.10;;
38805;SDS011;25635;51.146;17.162;2023-07-31T07:33:26;5.00;;;1.20;;
38805;SDS011;25635;51.146;17.162;2023-07-31T07:35:52;5.10;;;1.30;;
38805;SDS011;25635;51.146;17.162;2023-07-31T07:38:18;7.20;;;1.20;;
38805;SDS011;25635;51.146;17.162;2023-07-31T07:40:44;5.20;;;1.10;;
38805;SDS011;25635;51.146;17.162;2023-07-31T07:43:12;5.50;;;1.40;;
38805;SDS011;25635;51.146;17.162;2023-07-31T07:45:38;4.80;;;1.30;;
38805;SDS011;25635;51.146;17.162;2023-07-31T07:48:04;6.90;;;1.50;;
38805;SDS011;25635;51.146;17.162;2023-07-31T07:50:30;6.20;;;1.20;;
38805;SDS011;25635;51.146;17.162;2023-07-31T07:52:57;4.40;;;0.80;;
38805;SDS011;25635;51.146;17.162;2023-07-31T07:55:23;4.10;;;0.70;;
38805;SDS011;25635;51.146;17.162;2023-07-31T07:57:49;4.90;;;1.30;;
38805;SDS011;25635;51.146;17.162;2023-07-31T08:00:16;7.50;;;1.20;;
38805;SDS011;25635;51.146;17.162;2023-07-31T08:02:43;6.30;;;1.10;;
38805;SDS011;25635;51.146;17.162;2023-07-31T08:05:09;4.70;;;1.10;;
38805;SDS011;25635;51.146;17.162;2023-07-31T08:07:35;4.50;;;1.10;;
38805;SDS011;25635;51.146;17.162;2023-07-31T08:10:01;6.00;;;1.30;;
38805;SDS011;25635;51.146;17.162;2023-07-31T08:12:27;5.10;;;1.10;;
38805;SDS011;25635;51.146;17.162;2023-07-31T08:14:53;6.20;;;1.30;;
38805;SDS011;25635;51.146;17.162;2023-07-31T08:17:19;4.70;;;1.10;;
38805;SDS011;25635;51.146;17.162;2023-07-31T08:19:45;4.60;;;1.10;;
38805;SDS011;25635;51.146;17.162;2023-07-31T08:22:12;4.30;;;1.00;;
38805;SDS011;25635;51.146;17.162;2023-07-31T08:24:38;3.70;;;0.90;;
38805;SDS011;25635;51.146;17.162;2023-07-31T08:27:05;5.30;;;1.10;;
38805;SDS011;25635;51.146;17.162;2023-07-31T08:29:32;3.60;;;0.90;;
38805;SDS011;25635;51.146;17.162;2023-07-31T08:31:58;4.20;;;0.80;;
38805;SDS011;25635;51.146;17.162;2023-07-31T08:34:24;4.30;;;0.90;;
38805;SDS011;25635;51.146;17.162;2023-07-31T08:36:52;5.10;;;1.00;;
38805;SDS011;25635;51.146;17.162;2023-07-31T08:39:18;6.40;;;1.00;;
38805;SDS011;25635;51.146;17.162;2023-07-31T08:41:44;5.20;;;1.00;;
38805;SDS011;25635;51.146;17.162;2023-07-31T08:44:11;5.30;;;0.90;;
38805;SDS011;25635;51.146;17.162;2023-07-31T08:46:39;5.20;;;1.10;;
38805;SDS011;25635;51.146;17.162;2023-07-31T08:49:06;4.40;;;0.90;;
38805;SDS011;25635;51.146;17.162;2023-07-31T08:51:34;5.20;;;1.00;;
38805;SDS011;25635;51.146;17.162;2023-07-31T08:54:01;4.60;;;0.90;;
38805;SDS011;25635;51.146;17.162;2023-07-31T08:56:29;8.10;;;1.20;;
38805;SDS011;25635;51.146;17.162;2023-07-31T08:58:58;4.50;;;1.00;;
38805;SDS011;25635;51.146;17.162;2023-07-31T09:01:28;4.70;;;1.00;;
38805;SDS011;25635;51.146;17.162;2023-07-31T09:03:55;4.00;;;1.40;;
38805;SDS011;25635;51.146;17.162;2023-07-31T09:06:23;6.30;;;1.40;;
38805;SDS011;25635;51.146;17.162;2023-07-31T09:08:52;5.90;;;1.20;;
38805;SDS011;25635;51.146;17.162;2023-07-31T09:11:18;4.40;;;0.90;;
38805;SDS011;25635;51.146;17.162;2023-07-31T09:13:45;3.80;;;0.90;;
38805;SDS011;25635;51.146;17.162;2023-07-31T09:16:12;3.50;;;0.90;;
38805;SDS011;25635;51.146;17.162;2023-07-31T09:18:54;3.90;;;1.00;;
38805;SDS011;25635;51.146;17.162;2023-07-31T09:21:22;4.80;;;1.10;;
38805;SDS011;25635;51.146;17.162;2023-07-31T09:23:52;3.80;;;1.00;;
38805;SDS011;25635;51.146;17.162;2023-07-31T09:26:35;4.60;;;1.10;;
38805;SDS011;25635;51.146;17.162;2023-07-31T09:29:05;6.90;;;1.10;;
38805;SDS011;25635;51.146;17.162;2023-07-31T09:31:38;5.20;;;1.50;;
38805;SDS011;25635;51.146;17.162;2023-07-31T09:34:07;3.90;;;1.30;;
38805;SDS011;25635;51.146;17.162;2023-07-31T09:36:39;5.50;;;1.40;;
38805;SDS011;25635;51.146;17.162;2023-07-31T09:39:11;5.20;;;1.50;;
38805;SDS011;25635;51.146;17.162;2023-07-31T09:41:39;5.00;;;1.40;;
38805;SDS011;25635;51.146;17.162;2023-07-31T09:44:06;6.50;;;1.60;;
38805;SDS011;25635;51.146;17.162;2023-07-31T09:46:36;7.80;;;1.60;;
38805;SDS011;25635;51.146;17.162;2023-07-31T09:49:04;5.80;;;1.50;;
38805;SDS011;25635;51.146;17.162;2023-07-31T09:51:31;4.70;;;1.80;;
38805;SDS011;25635;51.146;17.162;2023-07-31T09:53:58;6.30;;;1.80;;
38805;SDS011;25635;51.146;17.162;2023-07-31T09:56:24;4.50;;;2.10;;
38805;SDS011;25635;51.146;17.162;2023-07-31T09:58:51;6.20;;;2.80;;
38805;SDS011;25635;51.146;17.162;2023-07-31T10:01:20;6.20;;;1.90;;
38805;SDS011;25635;51.146;17.162;2023-07-31T10:03:45;5.80;;;1.60;;
38805;SDS011;25635;51.146;17.162;2023-07-31T10:06:12;5.20;;;1.30;;
38805;SDS011;25635;51.146;17.162;2023-07-31T10:08:41;7.70;;;1.40;;
38805;SDS011;25635;51.146;17.162;2023-07-31T10:11:10;5.80;;;1.40;;
38805;SDS011;25635;51.146;17.162;2023-07-31T10:13:39;5.70;;;1.50;;
38805;SDS011;25635;51.146;17.162;2023-07-31T10:16:08;4.80;;;1.40;;
38805;SDS011;25635;51.146;17.162;2023-07-31T10:18:34;3.90;;;1.40;;
38805;SDS011;25635;51.146;17.162;2023-07-31T10:21:01;4.00;;;1.40;;
38805;SDS011;25635;51.146;17.162;2023-07-31T10:23:28;4.10;;;1.40;;
38805;SDS011;25635;51.146;17.162;2023-07-31T10:25:55;4.40;;;1.40;;
38805;SDS011;25635;51.146;17.162;2023-07-31T10:28:24;4.60;;;1.20;;
38805;SDS011;25635;51.146;17.162;2023-07-31T10:30:50;3.00;;;1.10;;
38805;SDS011;25635;51.146;17.162;2023-07-31T10:33:17;4.80;;;1.40;;
38805;SDS011;25635;51.146;17.162;2023-07-31T10:35:46;4.50;;;1.00;;
38805;SDS011;25635;51.146;17.162;2023-07-31T10:38:13;5.00;;;1.00;;
38805;SDS011;25635;51.146;17.162;2023-07-31T10:40:39;4.20;;;1.10;;
38805;SDS011;25635;51.146;17.162;2023-07-31T10:43:06;5.30;;;1.20;;
38805;SDS011;25635;51.146;17.162;2023-07-31T10:45:35;5.20;;;1.20;;
38805;SDS011;25635;51.146;17.162;2023-07-31T10:48:03;4.60;;;1.00;;
38805;SDS011;25635;51.146;17.162;2023-07-31T10:50:31;6.60;;;1.20;;
38805;SDS011;25635;51.146;17.162;2023-07-31T10:53:25;4.40;;;1.10;;
38805;SDS011;25635;51.146;17.162;2023-07-31T10:56:07;4.40;;;1.00;;
38805;SDS011;25635;51.146;17.162;2023-07-31T10:58:35;3.70;;;1.10;;
38805;SDS011;25635;51.146;17.162;2023-07-31T11:01:03;4.80;;;1.40;;
38805;SDS011;25635;51.146;17.162;2023-07-31T11:03:49;3.60;;;1.20;;
38805;SDS011;25635;51.146;17.162;2023-07-31T11:06:18;5.30;;;1.00;;
38805;SDS011;25635;51.146;17.162;2023-07-31T11:08:45;4.40;;;1.00;;
38805;SDS011;25635;51.146;17.162;2023-07-31T11:11:13;6.40;;;1.40;;
38805;SDS011;25635;51.146;17.162;2023-07-31T11:13:51;5.50;;;1.40;;
38805;SDS011;25635;51.146;17.162;2023-07-31T11:16:20;4.90;;;0.90;;
38805;SDS011;25635;51.146;17.162;2023-07-31T11:18:47;3.90;;;1.00;;
38805;SDS011;25635;51.146;17.162;2023-07-31T11:21:15;3.60;;;0.90;;
38805;SDS011;25635;51.146;17.162;2023-07-31T11:23:49;10.90;;;1.10;;
38805;SDS011;25635;51.146;17.162;2023-07-31T11:28:47;5.20;;;1.10;;
38805;SDS011;25635;51.146;17.162;2023-07-31T11:31:14;4.20;;;1.10;;
38805;SDS011;25635;51.146;17.162;2023-07-31T11:33:41;5.20;;;1.20;;
38805;SDS011;25635;51.146;17.162;2023-07-31T11:36:13;5.60;;;1.10;;
38805;SDS011;25635;51.146;17.162;2023-07-31T11:38:40;3.40;;;1.00;;
38805;SDS011;25635;51.146;17.162;2023-07-31T11:41:06;3.80;;;1.00;;
38805;SDS011;25635;51.146;17.162;2023-07-31T11:43:33;3.90;;;1.00;;
38805;SDS011;25635;51.146;17.162;2023-07-31T11:46:00;2.40;;;0.90;;
38805;SDS011;25635;51.146;17.162;2023-07-31T11:48:30;4.80;;;1.00;;
38805;SDS011;25635;51.146;17.162;2023-07-31T11:51:00;4.50;;;1.20;;
38805;SDS011;25635;51.146;17.162;2023-07-31T11:55:53;6.20;;;1.30;;
38805;SDS011;25635;51.146;17.162;2023-07-31T11:58:20;4.50;;;1.30;;
38805;SDS011;25635;51.146;17.162;2023-07-31T12:00:47;3.80;;;1.20;;
38805;SDS011;25635;51.146;17.162;2023-07-31T12:03:15;3.00;;;1.10;;
38805;SDS011;25635;51.146;17.162;2023-07-31T12:05:41;5.30;;;1.30;;
38805;SDS011;25635;51.146;17.162;2023-07-31T12:08:11;3.80;;;1.30;;
38805;SDS011;25635;51.146;17.162;2023-07-31T12:10:38;4.10;;;1.20;;
38805;SDS011;25635;51.146;17.162;2023-07-31T12:13:10;4.50;;;1.50;;
38805;SDS011;25635;51.146;17.162;2023-07-31T12:15:41;4.00;;;1.20;;
38805;SDS011;25635;51.146;17.162;2023-07-31T12:18:11;4.00;;;1.30;;
38805;SDS011;25635;51.146;17.162;2023-07-31T12:20:40;4.70;;;1.40;;
38805;SDS011;25635;51.146;17.162;2023-07-31T12:23:15;3.10;;;1.00;;
38805;SDS011;25635;51.146;17.162;2023-07-31T12:25:43;5.00;;;1.40;;
38805;SDS011;25635;51.146;17.162;2023-07-31T12:28:09;3.00;;;1.20;;
38805;SDS011;25635;51.146;17.162;2023-07-31T12:30:39;3.40;;;1.20;;
38805;SDS011;25635;51.146;17.162;2023-07-31T12:33:14;3.60;;;1.10;;
38805;SDS011;25635;51.146;17.162;2023-07-31T12:35:43;4.60;;;1.40;;
38805;SDS011;25635;51.146;17.162;2023-07-31T12:38:12;2.50;;;1.00;;
38805;SDS011;25635;51.146;17.162;2023-07-31T12:40:40;3.70;;;1.30;;
38805;SDS011;25635;51.146;17.162;2023-07-31T12:43:07;3.30;;;1.20;;
38805;SDS011;25635;51.146;17.162;2023-07-31T12:45:34;4.30;;;1.10;;
38805;SDS011;25635;51.146;17.162;2023-07-31T12:48:01;3.30;;;1.20;;
38805;SDS011;25635;51.146;17.162;2023-07-31T12:50:27;4.10;;;1.60;;
38805;SDS011;25635;51.146;17.162;2023-07-31T12:52:53;3.50;;;1.30;;
38805;SDS011;25635;51.146;17.162;2023-07-31T12:55:21;4.80;;;1.30;;
38805;SDS011;25635;51.146;17.162;2023-07-31T12:57:48;5.90;;;1.50;;
38805;SDS011;25635;51.146;17.162;2023-07-31T13:00:15;3.30;;;1.10;;
38805;SDS011;25635;51.146;17.162;2023-07-31T13:02:41;5.20;;;1.40;;
38805;SDS011;25635;51.146;17.162;2023-07-31T13:05:08;3.20;;;1.00;;
38805;SDS011;25635;51.146;17.162;2023-07-31T13:07:34;4.50;;;1.40;;
38805;SDS011;25635;51.146;17.162;2023-07-31T13:10:00;6.20;;;1.40;;
38805;SDS011;25635;51.146;17.162;2023-07-31T13:12:26;4.80;;;1.30;;
38805;SDS011;25635;51.146;17.162;2023-07-31T13:14:52;4.40;;;1.30;;
38805;SDS011;25635;51.146;17.162;2023-07-31T13:17:18;4.60;;;1.60;;
38805;SDS011;25635;51.146;17.162;2023-07-31T13:19:44;4.80;;;1.70;;
38805;SDS011;25635;51.146;17.162;2023-07-31T13:22:10;4.80;;;1.50;;
38805;SDS011;25635;51.146;17.162;2023-07-31T13:24:36;5.30;;;1.80;;
38805;SDS011;25635;51.146;17.162;2023-07-31T13:27:03;4.10;;;1.40;;
38805;SDS011;25635;51.146;17.162;2023-07-31T13:29:29;3.20;;;1.50;;
38805;SDS011;25635;51.146;17.162;2023-07-31T13:31:56;5.50;;;1.60;;
38805;SDS011;25635;51.146;17.162;2023-07-31T13:34:22;3.70;;;1.60;;
38805;SDS011;25635;51.146;17.162;2023-07-31T13:36:48;5.00;;;1.50;;
38805;SDS011;25635;51.146;17.162;2023-07-31T13:39:14;5.60;;;1.50;;
38805;SDS011;25635;51.146;17.162;2023-07-31T13:41:40;4.90;;;1.80;;
38805;SDS011;25635;51.146;17.162;2023-07-31T13:44:06;4.70;;;1.60;;
38805;SDS011;25635;51.146;17.162;2023-07-31T13:46:32;4.10;;;1.60;;
38805;SDS011;25635;51.146;17.162;2023-07-31T13:48:58;5.80;;;1.50;;
38805;SDS011;25635;51.146;17.162;2023-07-31T13:51:25;5.70;;;1.80;;
38805;SDS011;25635;51.146;17.162;2023-07-31T13:53:56;4.70;;;1.70;;
38805;SDS011;25635;51.146;17.162;2023-07-31T13:56:22;3.90;;;1.60;;
38805;SDS011;25635;51.146;17.162;2023-07-31T13:58:51;3.90;;;1.50;;
38805;SDS011;25635;51.146;17.162;2023-07-31T14:01:17;5.80;;;1.90;;
38805;SDS011;25635;51.146;17.162;2023-07-31T14:03:43;6.70;;;1.70;;
38805;SDS011;25635;51.146;17.162;2023-07-31T14:06:09;3.80;;;1.40;;
38805;SDS011;25635;51.146;17.162;2023-07-31T14:08:35;4.30;;;1.40;;
38805;SDS011;25635;51.146;17.162;2023-07-31T14:11:01;4.80;;;1.80;;
38805;SDS011;25635;51.146;17.162;2023-07-31T14:13:27;3.70;;;1.60;;
38805;SDS011;25635;51.146;17.162;2023-07-31T14:15:56;5.60;;;1.50;;
38805;SDS011;25635;51.146;17.162;2023-07-31T14:18:22;3.80;;;1.50;;
38805;SDS011;25635;51.146;17.162;2023-07-31T14:20:48;6.20;;;1.40;;
38805;SDS011;25635;51.146;17.162;2023-07-31T14:23:14;4.60;;;1.60;;
38805;SDS011;25635;51.146;17.162;2023-07-31T14:25:41;3.80;;;1.80;;
38805;SDS011;25635;51.146;17.162;2023-07-31T14:28:09;4.70;;;1.80;;
38805;SDS011;25635;51.146;17.162;2023-07-31T14:30:35;3.60;;;1.50;;
38805;SDS011;25635;51.146;17.162;2023-07-31T14:33:01;5.20;;;1.80;;
38805;SDS011;25635;51.146;17.162;2023-07-31T14:35:31;5.40;;;1.60;;
38805;SDS011;25635;51.146;17.162;2023-07-31T14:37:57;4.70;;;1.80;;
38805;SDS011;25635;51.146;17.162;2023-07-31T14:40:23;4.00;;;1.60;;
38805;SDS011;25635;51.146;17.162;2023-07-31T14:42:49;6.60;;;1.70;;
38805;SDS011;25635;51.146;17.162;2023-07-31T14:45:15;3.70;;;1.60;;
38805;SDS011;25635;51.146;17.162;2023-07-31T14:47:41;4.80;;;1.80;;